sensor_id;sensor_type;location;lat;lon;timestamp;pressure;altitude;pressure_sealevel;temperature;humidity
14204;BME280;7185;51.854;6.622;2023-05-09T00:02:11;101455.44;;;20.00;76.71
14204;BME280;7185;51.854;6.622;2023-05-09T00:04:44;101449.81;;;19.87;77.63
14204;BME280;7185;51.854;6.622;2023-05-09T00:07:15;101445.06;;;19.94;77.29
14204;BME280;7185;51.854;6.622;2023-05-09T00:09:47;101439.91;;;19.91;77.01
14204;BME280;7185;51.854;6.622;2023-05-09T00:12:18;101452.25;;;19.92;76.92
14204;BME280;7185;51.854;6.622;2023-05-09T00:14:50;101450.78;;;19.85;77.32
14204;BME280;7185;51.854;6.622;2023-05-09T00:17:23;101448.25;;;19.82;77.78
14204;BME280;7185;51.854;6.622;2023-05-09T00:19:57;101449.94;;;19.84;77.22
14204;BME280;7185;51.854;6.622;2023-05-09T00:22:30;101445.66;;;19.80;77.64
14204;BME280;7185;51.854;6.622;2023-05-09T00:25:02;101445.22;;;19.91;76.96
14204;BME280;7185;51.854;6.622;2023-05-09T00:27:34;101435.94;;;19.79;77.50
14204;BME280;7185;51.854;6.622;2023-05-09T00:30:07;101432.88;;;19.68;77.84
14204;BME280;7185;51.854;6.622;2023-05-09T00:32:38;101427.34;;;19.72;77.73
14204;BME280;7185;51.854;6.622;2023-05-09T00:35:12;101434.81;;;19.85;77.45
14204;BME280;7185;51.854;6.622;2023-05-09T00:37:43;101429.09;;;19.94;77.24
14204;BME280;7185;51.854;6.622;2023-05-09T00:40:15;101431.69;;;19.96;77.29
14204;BME280;7185;51.854;6.622;2023-05-09T00:42:46;101421.13;;;19.94;77.27
14204;BME280;7185;51.854;6.622;2023-05-09T00:45:18;101410.56;;;19.93;77.45
14204;BME280;7185;51.854;6.622;2023-05-09T00:47:50;101407.16;;;19.89;77.12
14204;BME280;7185;51.854;6.622;2023-05-09T00:50:23;101405.69;;;20.02;76.85
14204;BME280;7185;51.854;6.622;2023-05-09T00:52:55;101402.38;;;19.97;77.03
14204;BME280;7185;51.854;6.622;2023-05-09T00:55:26;101397.31;;;19.91;77.15
14204;BME280;7185;51.854;6.622;2023-05-09T00:57:58;101401.03;;;19.87;77.52
14204;BME280;7185;51.854;6.622;2023-05-09T01:00:29;101389.06;;;19.77;77.65
14204;BME280;7185;51.854;6.622;2023-05-09T01:03:01;101391.31;;;19.65;78.70
14204;BME280;7185;51.854;6.622;2023-05-09T01:05:42;101388.19;;;19.76;78.05
14204;BME280;7185;51.854;6.622;2023-05-09T01:08:33;101382.78;;;19.98;77.28
14204;BME280;7185;51.854;6.622;2023-05-09T01:11:10;101375.69;;;19.78;77.93
14204;BME280;7185;51.854;6.622;2023-05-09T01:13:48;101372.28;;;19.74;77.96
14204;BME280;7185;51.854;6.622;2023-05-09T01:16:27;101376.97;;;19.69;78.46
14204;BME280;7185;51.854;6.622;2023-05-09T01:19:22;101365.31;;;19.72;78.41
14204;BME280;7185;51.854;6.622;2023-05-09T01:22:00;101372.09;;;19.79;78.06
14204;BME280;7185;51.854;6.622;2023-05-09T01:25:00;101355.53;;;19.72;78.17
14204;BME280;7185;51.854;6.622;2023-05-09T01:27:44;101356.59;;;19.89;78.10
14204;BME280;7185;51.854;6.622;2023-05-09T01:30:20;101357.25;;;19.94;77.37
14204;BME280;7185;51.854;6.622;2023-05-09T01:32:56;101355.81;;;19.66;78.65
14204;BME280;7185;51.854;6.622;2023-05-09T01:35:31;101347.00;;;19.64;78.91
14204;BME280;7185;51.854;6.622;2023-05-09T01:38:12;101349.34;;;19.72;78.70
14204;BME280;7185;51.854;6.622;2023-05-09T01:40:44;101344.16;;;19.69;78.73
14204;BME280;7185;51.854;6.622;2023-05-09T01:43:19;101340.69;;;19.67;78.20
14204;BME280;7185;51.854;6.622;2023-05-09T01:45:54;101337.81;;;19.71;78.33
14204;BME280;7185;51.854;6.622;2023-05-09T01:48:27;101342.13;;;19.55;79.01
14204;BME280;7185;51.854;6.622;2023-05-09T01:51:00;101341.06;;;19.38;79.60
14204;BME280;7185;51.854;6.622;2023-05-09T01:53:33;101346.09;;;19.45;79.44
14204;BME280;7185;51.854;6.622;2023-05-09T01:56:07;101342.19;;;19.33;79.91
14204;BME280;7185;51.854;6.622;2023-05-09T01:58:40;101341.31;;;19.32;80.18
14204;BME280;7185;51.854;6.622;2023-05-09T02:01:14;101336.53;;;19.20;80.91
14204;BME280;7185;51.854;6.622;2023-05-09T02:03:47;101343.44;;;19.24;80.91
14204;BME280;7185;51.854;6.622;2023-05-09T02:06:21;101350.34;;;19.28;80.78
14204;BME280;7185;51.854;6.622;2023-05-09T02:08:53;101345.84;;;19.30;80.67
14204;BME280;7185;51.854;6.622;2023-05-09T02:11:25;101346.91;;;19.26;80.67
14204;BME280;7185;51.854;6.622;2023-05-09T02:13:56;101344.06;;;19.31;80.50
14204;BME280;7185;51.854;6.622;2023-05-09T02:16:30;101344.00;;;19.32;80.60
14204;BME280;7185;51.854;6.622;2023-05-09T02:19:01;101341.31;;;19.32;80.59
14204;BME280;7185;51.854;6.622;2023-05-09T02:21:33;101343.19;;;19.30;80.98
14204;BME280;7185;51.854;6.622;2023-05-09T02:24:05;101340.78;;;19.24;81.15
14204;BME280;7185;51.854;6.622;2023-05-09T02:26:37;101340.31;;;19.35;80.67
14204;BME280;7185;51.854;6.622;2023-05-09T02:29:09;101340.59;;;19.29;80.98
14204;BME280;7185;51.854;6.622;2023-05-09T02:31:43;101343.19;;;19.30;81.36
14204;BME280;7185;51.854;6.622;2023-05-09T02:34:17;101336.13;;;19.29;81.77
14204;BME280;7185;51.854;6.622;2023-05-09T02:36:50;101337.47;;;19.39;81.14
14204;BME280;7185;51.854;6.622;2023-05-09T02:39:21;101333.88;;;19.40;81.02
14204;BME280;7185;51.854;6.622;2023-05-09T02:41:53;101329.88;;;19.51;80.60
14204;BME280;7185;51.854;6.622;2023-05-09T02:44:24;101334.19;;;19.53;80.55
14204;BME280;7185;51.854;6.622;2023-05-09T02:46:57;101330.16;;;19.45;81.10
14204;BME280;7185;51.854;6.622;2023-05-09T02:49:29;101333.06;;;19.59;80.52
14204;BME280;7185;51.854;6.622;2023-05-09T02:54:35;101333.97;;;19.79;79.38
14204;BME280;7185;51.854;6.622;2023-05-09T02:57:07;101328.00;;;19.73;80.03
14204;BME280;7185;51.854;6.622;2023-05-09T02:59:38;101327.88;;;19.77;80.36
14204;BME280;7185;51.854;6.622;2023-05-09T03:02:42;101318.78;;;19.81;80.50
14204;BME280;7185;51.854;6.622;2023-05-09T03:05:13;101314.28;;;19.83;80.52
14204;BME280;7185;51.854;6.622;2023-05-09T03:07:45;101319.00;;;19.76;80.75
14204;BME280;7185;51.854;6.622;2023-05-09T03:10:17;101311.91;;;19.77;80.84
14204;BME280;7185;51.854;6.622;2023-05-09T03:12:48;101307.09;;;19.85;80.90
14204;BME280;7185;51.854;6.622;2023-05-09T03:15:20;101305.50;;;19.81;80.88
14204;BME280;7185;51.854;6.622;2023-05-09T03:17:53;101303.75;;;19.80;81.16
14204;BME280;7185;51.854;6.622;2023-05-09T03:20:25;101300.44;;;19.74;81.17
14204;BME280;7185;51.854;6.622;2023-05-09T03:22:57;101308.75;;;19.67;81.23
14204;BME280;7185;51.854;6.622;2023-05-09T03:25:28;101297.91;;;19.71;81.49
14204;BME280;7185;51.854;6.622;2023-05-09T03:28:00;101298.91;;;19.89;80.20
14204;BME280;7185;51.854;6.622;2023-05-09T03:30:32;101300.34;;;19.97;79.91
14204;BME280;7185;51.854;6.622;2023-05-09T03:33:05;101298.31;;;19.83;80.05
14204;BME280;7185;51.854;6.622;2023-05-09T03:35:37;101301.03;;;19.81;80.74
14204;BME280;7185;51.854;6.622;2023-05-09T03:38:09;101297.50;;;19.81;80.42
14204;BME280;7185;51.854;6.622;2023-05-09T03:40:40;101306.19;;;19.65;80.54
14204;BME280;7185;51.854;6.622;2023-05-09T03:43:12;101298.34;;;19.62;80.87
14204;BME280;7185;51.854;6.622;2023-05-09T03:45:44;101290.38;;;19.81;79.98
14204;BME280;7185;51.854;6.622;2023-05-09T03:48:17;101289.28;;;19.87;79.82
14204;BME280;7185;51.854;6.622;2023-05-09T03:50:48;101282.94;;;19.89;79.64
14204;BME280;7185;51.854;6.622;2023-05-09T03:53:20;101278.84;;;19.62;80.56
14204;BME280;7185;51.854;6.622;2023-05-09T03:55:51;101278.00;;;19.61;80.67
14204;BME280;7185;51.854;6.622;2023-05-09T03:58:23;101282.00;;;19.51;80.71
14204;BME280;7185;51.854;6.622;2023-05-09T04:00:55;101266.84;;;19.53;80.94
14204;BME280;7185;51.854;6.622;2023-05-09T04:03:28;101268.38;;;19.58;80.76
14204;BME280;7185;51.854;6.622;2023-05-09T04:05:59;101267.28;;;19.63;80.72
14204;BME280;7185;51.854;6.622;2023-05-09T04:08:31;101267.53;;;19.77;80.20
14204;BME280;7185;51.854;6.622;2023-05-09T04:11:03;101272.25;;;19.70;80.49
14204;BME280;7185;51.854;6.622;2023-05-09T04:13:35;101269.91;;;19.43;81.36
14204;BME280;7185;51.854;6.622;2023-05-09T04:16:07;101267.81;;;19.71;80.74
14204;BME280;7185;51.854;6.622;2023-05-09T04:18:40;101258.50;;;19.41;81.65
14204;BME280;7185;51.854;6.622;2023-05-09T04:21:12;101263.13;;;19.36;82.30
14204;BME280;7185;51.854;6.622;2023-05-09T04:23:43;101268.84;;;19.48;81.81
14204;BME280;7185;51.854;6.622;2023-05-09T04:26:15;101265.03;;;19.53;81.24
14204;BME280;7185;51.854;6.622;2023-05-09T04:28:47;101262.28;;;19.36;80.46
14204;BME280;7185;51.854;6.622;2023-05-09T04:31:19;101264.03;;;19.37;80.88
14204;BME280;7185;51.854;6.622;2023-05-09T04:33:51;101258.44;;;19.43;80.98
14204;BME280;7185;51.854;6.622;2023-05-09T04:36:23;101258.88;;;19.53;80.40
14204;BME280;7185;51.854;6.622;2023-05-09T04:38:55;101253.38;;;19.37;81.11
14204;BME280;7185;51.854;6.622;2023-05-09T04:41:26;101255.84;;;19.61;80.37
14204;BME280;7185;51.854;6.622;2023-05-09T04:44:08;101246.00;;;19.63;80.08
14204;BME280;7185;51.854;6.622;2023-05-09T04:46:53;101248.88;;;19.58;79.18
14204;BME280;7185;51.854;6.622;2023-05-09T04:49:29;101250.72;;;19.77;79.15
14204;BME280;7185;51.854;6.622;2023-05-09T04:52:01;101249.09;;;19.72;78.47
14204;BME280;7185;51.854;6.622;2023-05-09T04:54:32;101248.97;;;19.75;78.38
14204;BME280;7185;51.854;6.622;2023-05-09T04:57:04;101247.59;;;19.48;79.13
14204;BME280;7185;51.854;6.622;2023-05-09T04:59:36;101240.53;;;19.47;78.40
14204;BME280;7185;51.854;6.622;2023-05-09T05:02:07;101252.66;;;19.33;79.24
14204;BME280;7185;51.854;6.622;2023-05-09T05:04:40;101248.13;;;19.35;79.27
14204;BME280;7185;51.854;6.622;2023-05-09T05:07:12;101238.16;;;19.40;79.16
14204;BME280;7185;51.854;6.622;2023-05-09T05:09:43;101243.16;;;19.27;79.39
14204;BME280;7185;51.854;6.622;2023-05-09T05:12:15;101233.78;;;19.39;79.31
14204;BME280;7185;51.854;6.622;2023-05-09T05:14:46;101241.03;;;19.36;79.18
14204;BME280;7185;51.854;6.622;2023-05-09T05:17:18;101243.47;;;19.40;79.49
14204;BME280;7185;51.854;6.622;2023-05-09T05:19:51;101231.88;;;19.62;78.31
14204;BME280;7185;51.854;6.622;2023-05-09T05:22:23;101238.03;;;19.63;78.20
14204;BME280;7185;51.854;6.622;2023-05-09T05:24:54;101225.81;;;19.78;77.90
14204;BME280;7185;51.854;6.622;2023-05-09T05:27:27;101222.91;;;19.63;76.84
14204;BME280;7185;51.854;6.622;2023-05-09T05:29:59;101214.59;;;19.71;77.05
14204;BME280;7185;51.854;6.622;2023-05-09T05:32:31;101211.03;;;19.91;76.39
14204;BME280;7185;51.854;6.622;2023-05-09T05:35:04;101210.88;;;19.94;75.91
14204;BME280;7185;51.854;6.622;2023-05-09T05:37:36;101214.63;;;19.90;75.65
14204;BME280;7185;51.854;6.622;2023-05-09T05:40:08;101212.59;;;19.95;75.70
14204;BME280;7185;51.854;6.622;2023-05-09T05:42:40;101212.38;;;19.81;75.19
14204;BME280;7185;51.854;6.622;2023-05-09T05:45:13;101220.25;;;19.84;75.38
14204;BME280;7185;51.854;6.622;2023-05-09T05:47:45;101213.72;;;19.70;74.86
14204;BME280;7185;51.854;6.622;2023-05-09T05:50:18;101223.53;;;19.89;74.94
14204;BME280;7185;51.854;6.622;2023-05-09T05:52:49;101212.03;;;19.88;75.55
14204;BME280;7185;51.854;6.622;2023-05-09T05:55:21;101205.69;;;19.72;75.70
14204;BME280;7185;51.854;6.622;2023-05-09T05:57:52;101202.50;;;20.02;75.31
14204;BME280;7185;51.854;6.622;2023-05-09T06:00:24;101195.59;;;19.79;74.24
14204;BME280;7185;51.854;6.622;2023-05-09T06:02:56;101203.44;;;19.82;74.67
14204;BME280;7185;51.854;6.622;2023-05-09T06:05:29;101192.31;;;19.54;75.20
14204;BME280;7185;51.854;6.622;2023-05-09T06:08:00;101184.53;;;19.50;74.99
14204;BME280;7185;51.854;6.622;2023-05-09T06:10:32;101183.81;;;19.65;75.14
14204;BME280;7185;51.854;6.622;2023-05-09T06:13:04;101184.44;;;19.91;74.73
14204;BME280;7185;51.854;6.622;2023-05-09T06:15:35;101178.63;;;20.00;75.07
14204;BME280;7185;51.854;6.622;2023-05-09T06:18:07;101180.97;;;19.89;75.21
14204;BME280;7185;51.854;6.622;2023-05-09T06:20:40;101179.63;;;19.79;75.38
14204;BME280;7185;51.854;6.622;2023-05-09T06:23:12;101174.41;;;19.96;75.31
14204;BME280;7185;51.854;6.622;2023-05-09T06:25:43;101176.34;;;20.12;75.80
14204;BME280;7185;51.854;6.622;2023-05-09T06:28:15;101167.84;;;20.03;74.54
14204;BME280;7185;51.854;6.622;2023-05-09T06:30:46;101171.28;;;20.05;74.42
14204;BME280;7185;51.854;6.622;2023-05-09T06:33:18;101165.09;;;19.87;75.70
14204;BME280;7185;51.854;6.622;2023-05-09T06:35:51;101162.66;;;20.00;76.09
14204;BME280;7185;51.854;6.622;2023-05-09T06:38:22;101154.22;;;19.73;76.27
14204;BME280;7185;51.854;6.622;2023-05-09T06:40:54;101149.59;;;19.77;76.03
14204;BME280;7185;51.854;6.622;2023-05-09T06:43:26;101150.88;;;19.68;76.63
14204;BME280;7185;51.854;6.622;2023-05-09T06:45:57;101160.31;;;19.56;77.22
14204;BME280;7185;51.854;6.622;2023-05-09T06:48:29;101148.38;;;19.46;78.30
14204;BME280;7185;51.854;6.622;2023-05-09T06:51:02;101150.31;;;19.23;78.54
14204;BME280;7185;51.854;6.622;2023-05-09T06:53:34;101145.00;;;19.23;78.78
14204;BME280;7185;51.854;6.622;2023-05-09T06:56:05;101141.75;;;19.54;78.07
14204;BME280;7185;51.854;6.622;2023-05-09T06:58:37;101132.03;;;19.72;77.69
14204;BME280;7185;51.854;6.622;2023-05-09T07:01:08;101130.91;;;19.78;76.83
14204;BME280;7185;51.854;6.622;2023-05-09T07:03:40;101129.47;;;19.71;77.48
14204;BME280;7185;51.854;6.622;2023-05-09T07:06:13;101120.97;;;19.82;77.45
14204;BME280;7185;51.854;6.622;2023-05-09T07:08:45;101122.22;;;19.74;78.05
14204;BME280;7185;51.854;6.622;2023-05-09T07:11:16;101123.97;;;19.74;78.64
14204;BME280;7185;51.854;6.622;2023-05-09T07:13:48;101123.03;;;19.38;79.00
14204;BME280;7185;51.854;6.622;2023-05-09T07:16:19;101109.72;;;19.57;78.34
14204;BME280;7185;51.854;6.622;2023-05-09T07:18:52;101106.03;;;19.79;77.15
14204;BME280;7185;51.854;6.622;2023-05-09T07:21:26;101099.50;;;19.86;77.76
14204;BME280;7185;51.854;6.622;2023-05-09T07:23:58;101097.97;;;19.81;78.23
14204;BME280;7185;51.854;6.622;2023-05-09T07:26:30;101094.22;;;19.85;77.23
14204;BME280;7185;51.854;6.622;2023-05-09T07:29:01;101097.09;;;20.17;76.54
14204;BME280;7185;51.854;6.622;2023-05-09T07:31:33;101096.53;;;20.28;75.96
14204;BME280;7185;51.854;6.622;2023-05-09T07:34:04;101100.78;;;20.14;76.66
14204;BME280;7185;51.854;6.622;2023-05-09T07:36:38;101093.81;;;20.12;76.54
14204;BME280;7185;51.854;6.622;2023-05-09T07:39:10;101089.56;;;20.43;75.89
14204;BME280;7185;51.854;6.622;2023-05-09T07:41:41;101090.44;;;20.43;75.33
14204;BME280;7185;51.854;6.622;2023-05-09T07:44:13;101090.91;;;20.34;76.34
14204;BME280;7185;51.854;6.622;2023-05-09T07:46:45;101086.66;;;20.47;75.94
14204;BME280;7185;51.854;6.622;2023-05-09T07:49:16;101080.00;;;20.38;75.20
14204;BME280;7185;51.854;6.622;2023-05-09T07:51:49;101085.53;;;20.69;74.69
14204;BME280;7185;51.854;6.622;2023-05-09T07:54:21;101075.91;;;20.66;74.10
14204;BME280;7185;51.854;6.622;2023-05-09T07:56:52;101079.53;;;20.30;75.80
14204;BME280;7185;51.854;6.622;2023-05-09T07:59:25;101075.00;;;20.15;76.16
14204;BME280;7185;51.854;6.622;2023-05-09T08:01:57;101067.94;;;20.14;76.14
14204;BME280;7185;51.854;6.622;2023-05-09T08:04:28;101068.72;;;20.33;75.81
14204;BME280;7185;51.854;6.622;2023-05-09T08:07:01;101063.97;;;20.05;76.91
14204;BME280;7185;51.854;6.622;2023-05-09T08:09:33;101052.22;;;20.27;76.44
14204;BME280;7185;51.854;6.622;2023-05-09T08:12:07;101059.53;;;20.57;74.80
14204;BME280;7185;51.854;6.622;2023-05-09T08:14:38;101047.00;;;20.76;74.38
14204;BME280;7185;51.854;6.622;2023-05-09T08:17:10;101049.81;;;20.73;73.78
14204;BME280;7185;51.854;6.622;2023-05-09T08:19:41;101034.72;;;21.22;73.63
14204;BME280;7185;51.854;6.622;2023-05-09T08:22:18;101039.03;;;21.40;71.77
14204;BME280;7185;51.854;6.622;2023-05-09T08:24:50;101028.88;;;21.63;70.43
14204;BME280;7185;51.854;6.622;2023-05-09T08:27:21;101034.47;;;21.42;70.19
14204;BME280;7185;51.854;6.622;2023-05-09T08:29:53;101017.28;;;21.78;68.79
14204;BME280;7185;51.854;6.622;2023-05-09T08:32:24;101017.78;;;21.85;68.71
14204;BME280;7185;51.854;6.622;2023-05-09T08:34:56;101020.19;;;21.90;68.05
14204;BME280;7185;51.854;6.622;2023-05-09T08:37:29;101012.25;;;22.19;66.74
14204;BME280;7185;51.854;6.622;2023-05-09T08:40:01;101015.44;;;22.40;66.30
14204;BME280;7185;51.854;6.622;2023-05-09T08:42:35;101009.16;;;22.55;67.24
14204;BME280;7185;51.854;6.622;2023-05-09T08:45:09;101007.22;;;22.86;65.45
14204;BME280;7185;51.854;6.622;2023-05-09T08:47:41;101000.72;;;22.76;65.17
14204;BME280;7185;51.854;6.622;2023-05-09T08:50:13;100998.63;;;22.81;65.97
14204;BME280;7185;51.854;6.622;2023-05-09T08:52:47;100990.44;;;22.41;65.35
14204;BME280;7185;51.854;6.622;2023-05-09T08:55:19;100988.91;;;22.37;65.95
14204;BME280;7185;51.854;6.622;2023-05-09T08:57:51;100987.00;;;22.53;66.46
14204;BME280;7185;51.854;6.622;2023-05-09T09:00:24;100984.59;;;22.77;64.51
14204;BME280;7185;51.854;6.622;2023-05-09T09:02:57;100982.06;;;21.88;66.37
14204;BME280;7185;51.854;6.622;2023-05-09T09:05:31;100981.66;;;22.53;65.30
14204;BME280;7185;51.854;6.622;2023-05-09T09:08:06;100973.47;;;22.42;64.95
14204;BME280;7185;51.854;6.622;2023-05-09T09:10:39;100971.34;;;22.62;66.04
14204;BME280;7185;51.854;6.622;2023-05-09T09:13:13;100969.81;;;22.72;63.69
14204;BME280;7185;51.854;6.622;2023-05-09T09:15:47;100965.59;;;22.82;61.18
14204;BME280;7185;51.854;6.622;2023-05-09T09:18:21;100962.81;;;22.84;63.14
14204;BME280;7185;51.854;6.622;2023-05-09T09:20:56;100968.53;;;22.92;59.90
14204;BME280;7185;51.854;6.622;2023-05-09T09:23:30;100957.72;;;23.35;59.42
14204;BME280;7185;51.854;6.622;2023-05-09T09:26:03;100951.22;;;24.06;58.75
14204;BME280;7185;51.854;6.622;2023-05-09T09:28:34;100955.03;;;23.76;58.00
14204;BME280;7185;51.854;6.622;2023-05-09T09:31:24;100949.16;;;23.30;58.25
14204;BME280;7185;51.854;6.622;2023-05-09T09:33:58;100947.31;;;23.31;57.13
14204;BME280;7185;51.854;6.622;2023-05-09T09:36:31;100939.44;;;23.42;55.90
14204;BME280;7185;51.854;6.622;2023-05-09T09:39:04;100946.84;;;23.51;55.25
14204;BME280;7185;51.854;6.622;2023-05-09T09:41:37;100934.53;;;24.28;55.57
14204;BME280;7185;51.854;6.622;2023-05-09T09:44:10;100933.44;;;24.30;52.47
14204;BME280;7185;51.854;6.622;2023-05-09T09:46:43;100929.75;;;24.44;52.41
14204;BME280;7185;51.854;6.622;2023-05-09T09:49:17;100923.50;;;24.57;52.48
14204;BME280;7185;51.854;6.622;2023-05-09T09:51:49;100925.34;;;24.43;51.05
14204;BME280;7185;51.854;6.622;2023-05-09T09:54:25;100911.50;;;24.49;51.10
14204;BME280;7185;51.854;6.622;2023-05-09T09:56:57;100913.09;;;24.15;51.50
14204;BME280;7185;51.854;6.622;2023-05-09T09:59:28;100908.69;;;24.64;51.19
14204;BME280;7185;51.854;6.622;2023-05-09T10:02:01;100918.66;;;24.25;51.77
14204;BME280;7185;51.854;6.622;2023-05-09T10:04:35;100900.75;;;24.75;50.77
14204;BME280;7185;51.854;6.622;2023-05-09T10:07:09;100897.59;;;24.44;51.22
14204;BME280;7185;51.854;6.622;2023-05-09T10:09:42;100891.22;;;24.71;50.66
14204;BME280;7185;51.854;6.622;2023-05-09T10:12:16;100891.69;;;24.89;52.14
14204;BME280;7185;51.854;6.622;2023-05-09T10:14:49;100894.28;;;25.62;50.24
14204;BME280;7185;51.854;6.622;2023-05-09T10:17:21;100892.34;;;25.64;48.25
14204;BME280;7185;51.854;6.622;2023-05-09T10:19:54;100891.41;;;25.29;50.98
14204;BME280;7185;51.854;6.622;2023-05-09T10:22:26;100877.69;;;25.45;50.07
14204;BME280;7185;51.854;6.622;2023-05-09T10:25:04;100882.34;;;24.58;49.47
14204;BME280;7185;51.854;6.622;2023-05-09T10:27:37;100876.47;;;24.90;49.07
14204;BME280;7185;51.854;6.622;2023-05-09T10:30:16;100871.63;;;24.58;50.60
14204;BME280;7185;51.854;6.622;2023-05-09T10:32:57;100870.16;;;24.41;50.05
14204;BME280;7185;51.854;6.622;2023-05-09T10:35:46;100870.31;;;24.76;51.22
14204;BME280;7185;51.854;6.622;2023-05-09T10:38:32;100857.38;;;25.06;51.01
14204;BME280;7185;51.854;6.622;2023-05-09T10:41:13;100862.88;;;25.04;50.56
14204;BME280;7185;51.854;6.622;2023-05-09T10:43:54;100852.19;;;24.30;50.48
14204;BME280;7185;51.854;6.622;2023-05-09T10:46:26;100842.66;;;24.26;51.88
14204;BME280;7185;51.854;6.622;2023-05-09T10:48:58;100849.59;;;24.41;51.38
14204;BME280;7185;51.854;6.622;2023-05-09T10:51:30;100847.66;;;24.43;51.51
14204;BME280;7185;51.854;6.622;2023-05-09T10:54:12;100847.41;;;24.09;51.59
14204;BME280;7185;51.854;6.622;2023-05-09T10:56:46;100852.16;;;23.93;52.84
14204;BME280;7185;51.854;6.622;2023-05-09T10:59:35;100842.69;;;24.00;52.45
14204;BME280;7185;51.854;6.622;2023-05-09T11:02:11;100837.13;;;23.90;54.19
14204;BME280;7185;51.854;6.622;2023-05-09T11:05:13;100845.25;;;23.37;55.00
14204;BME280;7185;51.854;6.622;2023-05-09T11:07:45;100837.47;;;23.85;54.76
14204;BME280;7185;51.854;6.622;2023-05-09T11:10:17;100834.03;;;23.83;53.89
14204;BME280;7185;51.854;6.622;2023-05-09T11:12:53;100816.78;;;23.87;53.99
14204;BME280;7185;51.854;6.622;2023-05-09T11:15:32;100808.66;;;23.76;53.90
14204;BME280;7185;51.854;6.622;2023-05-09T11:18:08;100819.13;;;23.79;53.78
14204;BME280;7185;51.854;6.622;2023-05-09T11:20:50;100809.38;;;23.91;54.22
14204;BME280;7185;51.854;6.622;2023-05-09T11:23:26;100804.25;;;23.75;56.32
14204;BME280;7185;51.854;6.622;2023-05-09T11:26:13;100804.25;;;23.75;55.38
14204;BME280;7185;51.854;6.622;2023-05-09T11:28:58;100803.41;;;24.00;55.79
14204;BME280;7185;51.854;6.622;2023-05-09T11:31:32;100799.53;;;23.92;57.54
14204;BME280;7185;51.854;6.622;2023-05-09T11:34:04;100812.19;;;23.38;59.57
14204;BME280;7185;51.854;6.622;2023-05-09T11:36:44;100823.56;;;22.74;61.33
14204;BME280;7185;51.854;6.622;2023-05-09T11:39:23;100819.09;;;22.87;61.73
14204;BME280;7185;51.854;6.622;2023-05-09T11:41:55;100805.91;;;22.99;61.35
14204;BME280;7185;51.854;6.622;2023-05-09T11:44:27;100813.91;;;22.58;62.39
14204;BME280;7185;51.854;6.622;2023-05-09T11:47:01;100803.25;;;22.29;63.42
14204;BME280;7185;51.854;6.622;2023-05-09T11:49:47;100802.53;;;22.13;65.31
14204;BME280;7185;51.854;6.622;2023-05-09T11:52:21;100799.53;;;22.32;65.13
14204;BME280;7185;51.854;6.622;2023-05-09T11:54:58;100801.84;;;22.38;64.51
14204;BME280;7185;51.854;6.622;2023-05-09T11:57:40;100798.09;;;22.26;64.16
14204;BME280;7185;51.854;6.622;2023-05-09T12:00:22;100789.50;;;22.50;64.60
14204;BME280;7185;51.854;6.622;2023-05-09T12:02:55;100786.97;;;22.62;63.42
14204;BME280;7185;51.854;6.622;2023-05-09T12:05:27;100784.56;;;22.44;62.66
14204;BME280;7185;51.854;6.622;2023-05-09T12:08:02;100773.94;;;22.70;62.64
14204;BME280;7185;51.854;6.622;2023-05-09T12:10:36;100776.75;;;22.81;62.69
14204;BME280;7185;51.854;6.622;2023-05-09T12:13:13;100776.03;;;22.52;63.67
14204;BME280;7185;51.854;6.622;2023-05-09T12:16:07;100765.81;;;22.71;63.07
14204;BME280;7185;51.854;6.622;2023-05-09T12:22:41;100759.84;;;23.34;60.50
14204;BME280;7185;51.854;6.622;2023-05-09T12:36:16;100725.63;;;24.02;58.96
14204;BME280;7185;51.854;6.622;2023-05-09T12:42:43;100726.38;;;24.28;57.57
14204;BME280;7185;51.854;6.622;2023-05-09T12:45:34;100719.59;;;24.11;57.69
14204;BME280;7185;51.854;6.622;2023-05-09T12:48:07;100717.88;;;24.10;57.95
14204;BME280;7185;51.854;6.622;2023-05-09T12:51:31;100715.91;;;23.88;59.14
14204;BME280;7185;51.854;6.622;2023-05-09T12:55:42;100720.56;;;23.60;59.91
14204;BME280;7185;51.854;6.622;2023-05-09T12:57:55;100703.69;;;23.97;59.70
14204;BME280;7185;51.854;6.622;2023-05-09T13:00:27;100713.25;;;23.62;60.16
14204;BME280;7185;51.854;6.622;2023-05-09T13:02:59;100714.84;;;23.65;60.76
14204;BME280;7185;51.854;6.622;2023-05-09T13:05:31;100708.06;;;23.35;61.43
14204;BME280;7185;51.854;6.622;2023-05-09T13:09:04;100708.72;;;23.26;62.04
14204;BME280;7185;51.854;6.622;2023-05-09T13:11:32;100718.59;;;22.72;64.23
14204;BME280;7185;51.854;6.622;2023-05-09T13:14:20;100714.28;;;22.56;64.54
14204;BME280;7185;51.854;6.622;2023-05-09T13:16:57;100708.44;;;22.77;64.98
14204;BME280;7185;51.854;6.622;2023-05-09T13:19:31;100711.84;;;22.39;66.64
14204;BME280;7185;51.854;6.622;2023-05-09T13:22:11;100704.88;;;22.64;67.38
14204;BME280;7185;51.854;6.622;2023-05-09T13:24:44;100713.91;;;21.93;68.98
14204;BME280;7185;51.854;6.622;2023-05-09T13:27:21;100714.44;;;21.99;69.51
14204;BME280;7185;51.854;6.622;2023-05-09T13:29:53;100721.06;;;21.49;71.90
14204;BME280;7185;51.854;6.622;2023-05-09T13:32:25;100718.84;;;21.56;74.01
14204;BME280;7185;51.854;6.622;2023-05-09T13:34:56;100722.66;;;21.23;74.91
14204;BME280;7185;51.854;6.622;2023-05-09T13:37:28;100719.44;;;21.47;75.99
14204;BME280;7185;51.854;6.622;2023-05-09T13:40:01;100715.06;;;21.17;77.11
14204;BME280;7185;51.854;6.622;2023-05-09T13:42:33;100714.75;;;21.22;77.34
14204;BME280;7185;51.854;6.622;2023-05-09T13:45:06;100723.06;;;21.17;78.72
14204;BME280;7185;51.854;6.622;2023-05-09T13:47:38;100715.78;;;21.19;77.91
14204;BME280;7185;51.854;6.622;2023-05-09T13:50:12;100729.47;;;20.98;79.09
14204;BME280;7185;51.854;6.622;2023-05-09T13:52:44;100714.03;;;20.75;80.02
14204;BME280;7185;51.854;6.622;2023-05-09T13:55:17;100711.84;;;20.65;82.42
14204;BME280;7185;51.854;6.622;2023-05-09T13:57:49;100712.50;;;20.85;82.06
14204;BME280;7185;51.854;6.622;2023-05-09T14:00:21;100711.28;;;20.91;79.46